Time;durP1;ratioP1;P1;durP2;ratioP2;P2;SDS_P1;SDS_P2;PMS_P1;PMS_P2;Temp;Humidity;BMP_temperature;BMP_pressure;BME280_temperature;BME280_humidity;BME280_pressure;Samples;Min_cycle;Max_cycle;Signal;HPM_P1;HPM_P2
2021/12/17 00:00:19;;;;;;;16.88;11.25;;;;;;;2.10;75.30;95968.19;5028845;28;20025;-55
2021/12/17 00:05:53;;;;;;;16.35;10.68;;;;;;;2.17;75.14;95975.72;5028816;28;20028;-60
2021/12/17 00:08:21;;;;;;;15.90;10.30;;;;;;;2.13;75.36;95970.69;5028916;28;20026;-57
2021/12/17 00:10:49;;;;;;;17.42;12.23;;;;;;;2.10;75.41;95965.66;5028703;28;20037;-57
2021/12/17 00:13:15;;;;;;;17.83;12.40;;;;;;;2.13;75.67;95973.25;5027963;28;20033;-57
2021/12/17 00:15:43;;;;;;;14.13;10.45;;;;;;;2.13;75.64;95984.28;5028299;28;20398;-58
2021/12/17 00:18:19;;;;;;;18.50;10.43;;;;;;;2.08;75.41;95973.31;5028462;28;20036;-58
2021/12/17 00:53:06;;;;;;;14.43;9.48;;;;;;;2.22;74.10;95973.13;5027872;28;20029;-59
2021/12/17 00:55:32;;;;;;;13.68;8.70;;;;;;;2.19;74.40;95975.69;5028149;28;20034;-57
2021/12/17 00:57:57;;;;;;;15.40;10.30;;;;;;;2.26;73.87;95973.91;5026487;28;20049;-61
2021/12/17 01:00:24;;;;;;;12.13;8.55;;;;;;;2.26;73.50;95969.66;5027594;28;20426;-59
2021/12/17 01:02:51;;;;;;;14.35;8.20;;;;;;;2.20;73.53;95968.03;5028142;28;20022;-58
2021/12/17 01:05:21;;;;;;;16.58;10.80;;;;;;;2.21;73.55;95968.88;5027919;28;20120;-58
2021/12/17 01:07:48;;;;;;;14.27;9.90;;;;;;;2.30;73.19;95971.28;5028013;28;20079;-57
2021/12/17 01:10:20;;;;;;;16.80;10.35;;;;;;;2.27;72.78;95956.06;5027974;28;20411;-60
2021/12/17 01:12:46;;;;;;;18.70;10.32;;;;;;;2.34;72.45;95952.56;5027610;28;20026;-58
2021/12/17 01:15:14;;;;;;;13.98;8.55;;;;;;;2.31;71.63;95956.84;5027825;28;20108;-57
2021/12/17 01:17:42;;;;;;;13.82;8.55;;;;;;;2.24;71.89;95953.56;5027712;28;20037;-59
2021/12/17 01:36:19;;;;;;;13.13;8.38;;;;;;;2.38;70.01;95943.19;5025092;28;20172;-58
2021/12/17 01:43:49;;;;;;;11.65;8.93;;;;;;;2.51;67.96;95926.84;5024955;28;20752;-58
2021/12/17 01:46:28;;;;;;;11.80;7.18;;;;;;;2.54;67.94;95915.75;5025102;28;20064;-59
2021/12/17 02:00:20;;;;;;;11.43;7.05;;;;;;;2.50;66.87;95899.69;5024897;28;20041;-59
2021/12/17 02:02:56;;;;;;;8.05;5.63;;;;;;;2.53;66.46;95916.63;5027839;28;20029;-58
2021/12/17 02:05:22;;;;;;;9.18;5.78;;;;;;;2.47;66.35;95904.00;5029542;28;20049;-59
2021/12/17 02:07:51;;;;;;;12.57;7.88;;;;;;;2.66;66.75;95941.00;5030750;28;20029;-58
2021/12/17 02:32:06;;;;;;;8.95;5.50;;;;;;;2.55;66.75;95902.16;5008270;28;20034;-59
2021/12/17 02:37:17;;;;;;;9.80;5.55;;;;;;;2.73;66.38;95908.63;5007917;28;20567;-56
2021/12/17 02:45:35;;;;;;;10.27;7.03;;;;;;;2.58;66.84;95884.28;4949833;28;20061;-58
2021/12/17 02:48:10;;;;;;;6.30;4.40;;;;;;;2.66;66.82;95894.34;4949832;29;20042;-55
2021/12/17 02:50:41;;;;;;;9.75;6.95;;;;;;;2.72;66.74;95912.03;4955261;28;20038;-55
2021/12/17 02:53:09;;;;;;;;;;;;;;;2.78;66.89;95917.03;4988666;28;20112;-60
2021/12/17 02:55:41;;;;;;;11.02;7.40;;;;;;;2.80;67.19;95919.56;4988127;28;19913;-60
2021/12/17 02:58:08;;;;;;;11.57;6.68;;;;;;;2.87;67.12;95921.97;4987864;28;20070;-58
2021/12/17 03:00:36;;;;;;;13.10;7.70;;;;;;;2.79;66.90;95905.97;4987646;28;20049;-58
2021/12/17 03:03:03;;;;;;;10.60;8.07;;;;;;;2.91;67.36;95913.38;4988110;28;20540;-58
2021/12/17 03:05:29;;;;;;;12.77;7.72;;;;;;;2.90;67.64;95910.88;4987913;28;20464;-59
2021/12/17 03:07:56;;;;;;;11.88;7.00;;;;;;;2.85;67.85;95902.47;4988223;28;20030;-57
2021/12/17 03:10:22;;;;;;;11.30;7.43;;;;;;;2.91;68.00;95910.00;4987762;28;20038;-57
2021/12/17 03:13:07;;;;;;;10.48;7.13;;;;;;;2.76;68.09;95881.41;4987003;28;20057;-56
2021/12/17 03:23:27;;;;;;;11.85;8.60;;;;;;;2.74;70.55;95889.94;5029888;28;20088;-60
2021/12/17 03:25:54;;;;;;;9.75;7.15;;;;;;;2.82;71.88;95913.56;5028985;28;20033;-60
2021/12/17 03:28:19;;;;;;;12.90;7.97;;;;;;;2.85;72.11;95907.56;5029227;28;20230;-58
2021/12/17 03:30:46;;;;;;;14.32;9.82;;;;;;;2.93;72.14;95915.91;5029561;28;20048;-61
2021/12/17 03:33:12;;;;;;;12.63;7.68;;;;;;;2.85;74.33;95913.50;5029818;28;20117;-55
2021/12/17 03:35:37;;;;;;;13.25;9.27;;;;;;;2.79;75.00;95905.97;5029531;28;20459;-56
2021/12/17 03:38:04;;;;;;;12.55;9.07;;;;;;;2.80;75.20;95905.09;5029041;28;20033;-61
2021/12/17 03:40:32;;;;;;;15.00;9.60;;;;;;;2.79;75.73;95897.47;5029226;28;20464;-60
2021/12/17 03:43:02;;;;;;;13.88;10.27;;;;;;;2.78;75.53;95886.47;5029144;28;20029;-59
2021/12/17 03:45:28;;;;;;;12.18;8.15;;;;;;;2.78;75.43;95885.63;5029246;28;20744;-59
2021/12/17 03:47:53;;;;;;;12.93;9.07;;;;;;;2.81;75.72;95898.31;5029229;28;20103;-59
2021/12/17 03:50:19;;;;;;;12.20;8.18;;;;;;;2.61;75.15;95863.88;5028993;28;20103;-59
2021/12/17 03:52:45;;;;;;;16.65;10.20;;;;;;;2.72;75.80;95894.22;5029168;28;20025;-58
2021/12/17 03:55:10;;;;;;;14.85;8.95;;;;;;;2.69;75.52;95881.53;5029100;28;20030;-59
2021/12/17 03:57:36;;;;;;;14.02;8.90;;;;;;;2.60;75.52;95877.44;5028730;28;20076;-62
2021/12/17 04:00:05;;;;;;;12.52;8.40;;;;;;;2.73;75.34;95884.00;5028701;28;20410;-61
2021/12/17 04:02:31;;;;;;;13.05;8.73;;;;;;;2.62;75.47;95870.63;5028513;28;20022;-60
2021/12/17 04:04:57;;;;;;;13.65;9.38;;;;;;;2.67;76.12;95873.94;5028937;28;20036;-60
2021/12/17 04:07:22;;;;;;;15.35;8.70;;;;;;;2.48;75.83;95836.94;5028868;28;20044;-60
2021/12/17 04:09:47;;;;;;;11.52;7.82;;;;;;;2.79;76.09;95877.97;5028942;28;20021;-58
2021/12/17 04:12:17;;;;;;;10.98;7.32;;;;;;;2.80;75.72;95878.78;5028768;28;20036;-60
2021/12/17 04:14:47;;;;;;;14.02;8.52;;;;;;;2.68;76.26;95864.59;5028413;28;20380;-58
2021/12/17 04:17:21;;;;;;;13.82;8.90;;;;;;;2.78;76.67;95872.91;5028735;28;20030;-58
2021/12/17 04:19:47;;;;;;;12.70;7.00;;;;;;;2.64;76.61;95834.94;5028875;28;20025;-60
2021/12/17 04:22:12;;;;;;;15.05;9.38;;;;;;;2.77;77.06;95869.50;5028678;28;20033;-59
2021/12/17 04:24:38;;;;;;;13.98;9.63;;;;;;;2.65;77.43;95846.81;5028065;28;20159;-58
2021/12/17 04:27:05;;;;;;;14.63;9.63;;;;;;;2.71;77.41;95855.19;5028261;28;20069;-56
2021/12/17 04:29:30;;;;;;;12.43;8.80;;;;;;;2.67;77.73;95848.47;5028100;28;20054;-57
2021/12/17 04:31:57;;;;;;;16.40;9.18;;;;;;;2.47;77.98;95825.91;5028592;28;20070;-57
2021/12/17 04:34:23;;;;;;;15.18;8.75;;;;;;;2.54;78.36;95841.91;5028645;28;20028;-57
2021/12/17 04:36:52;;;;;;;12.45;7.72;;;;;;;2.39;78.85;95813.34;5027920;28;20029;-59
2021/12/17 04:39:19;;;;;;;12.73;7.78;;;;;;;2.43;79.23;95829.38;5028364;28;20060;-58
2021/12/17 04:44:21;;;;;;;11.52;8.50;;;;;;;2.46;78.92;95821.69;5008546;28;20038;-57
2021/12/17 04:57:36;;;;;;;15.23;10.27;;;;;;;2.66;78.60;95831.50;5004619;28;20133;-59
2021/12/17 05:00:16;;;;;;;13.80;9.77;;;;;;;2.63;78.95;95813.72;5004339;28;20473;-57
2021/12/17 05:02:45;;;;;;;14.73;9.02;;;;;;;2.42;78.82;95791.22;5001867;28;20064;-56
2021/12/17 05:05:12;;;;;;;10.70;7.32;;;;;;;2.65;79.51;95813.72;5016773;28;20513;-55
2021/12/17 05:07:42;;;;;;;12.70;8.02;;;;;;;2.79;79.26;95824.47;4993618;28;20445;-58
2021/12/17 05:21:06;;;;;;;10.18;7.65;;;;;;;2.82;77.40;95811.69;5002459;28;20104;-58
2021/12/17 05:23:37;;;;;;;9.48;7.22;;;;;;;2.98;77.97;95835.13;5000992;28;20436;-58
2021/12/17 05:26:14;;;;;;;10.60;7.63;;;;;;;2.96;78.31;95836.88;4999659;28;20104;-55
2021/12/17 05:28:40;;;;;;;10.80;7.45;;;;;;;3.03;77.96;95830.75;4998751;28;20046;-58
2021/12/17 05:31:06;;;;;;;11.15;7.60;;;;;;;3.12;77.31;95828.03;5004612;28;20073;-61
2021/12/17 05:33:32;;;;;;;11.57;7.05;;;;;;;3.23;76.31;95827.81;5018801;28;20088;-61
2021/12/17 05:35:57;;;;;;;8.00;6.28;;;;;;;3.19;76.67;95825.38;5024501;28;20061;-60
2021/12/17 05:38:24;;;;;;;9.07;6.13;;;;;;;2.87;76.82;95786.09;5023334;28;20041;-59
2021/12/17 05:40:51;;;;;;;8.90;6.55;;;;;;;3.09;76.68;95829.81;5027276;28;20034;-61
2021/12/17 05:43:17;;;;;;;9.93;6.57;;;;;;;3.13;77.05;95816.97;5026235;28;20038;-62
2021/12/17 05:48:20;;;;;;;9.07;6.20;;;;;;;3.18;76.77;95808.38;5028954;28;20522;-60
2021/12/17 05:50:47;;;;;;;8.50;6.05;;;;;;;3.14;76.63;95815.25;5028295;28;20033;-61
2021/12/17 05:53:13;;;;;;;8.90;6.03;;;;;;;3.04;76.70;95806.16;5028507;28;20055;-61
2021/12/17 05:55:38;;;;;;;9.68;5.30;;;;;;;2.99;76.30;95800.31;5028368;28;20116;-60
2021/12/17 05:58:06;;;;;;;9.23;5.75;;;;;;;3.18;75.85;95823.69;5030510;28;20057;-62
2021/12/17 06:00:32;;;;;;;10.00;6.03;;;;;;;3.03;76.66;95804.44;5030809;28;20081;-63
2021/12/17 06:02:59;;;;;;;10.90;7.13;;;;;;;3.03;77.74;95810.38;5030894;28;20075;-60
2021/12/17 06:05:27;;;;;;;10.82;7.57;;;;;;;3.22;77.12;95835.50;5031238;28;20466;-59
2021/12/17 06:07:53;;;;;;;11.23;6.88;;;;;;;3.30;75.88;95834.47;5031184;28;20033;-58
2021/12/17 06:10:18;;;;;;;11.32;7.80;;;;;;;3.34;76.20;95840.31;5031233;28;20504;-63
2021/12/17 06:12:44;;;;;;;10.73;8.40;;;;;;;3.36;76.91;95847.94;5030480;28;20035;-60
2021/12/17 06:15:15;;;;;;;11.00;8.15;;;;;;;3.45;76.56;95843.47;5031163;28;20053;-59
2021/12/17 06:17:42;;;;;;;11.82;8.93;;;;;;;3.45;76.52;95848.59;5030925;28;20033;-62
2021/12/17 06:20:10;;;;;;;16.65;10.75;;;;;;;3.53;75.88;95857.81;5030635;28;20437;-60
2021/12/17 06:22:36;;;;;;;14.38;11.15;;;;;;;3.53;76.17;95856.06;5030450;28;20571;-60
2021/12/17 06:25:06;;;;;;;15.48;10.27;;;;;;;3.51;75.64;95850.19;5030256;28;20104;-59
2021/12/17 06:27:31;;;;;;;15.88;9.95;;;;;;;3.47;75.84;95846.84;5031047;28;20041;-59
2021/12/17 06:29:58;;;;;;;12.75;8.70;;;;;;;3.49;75.32;95839.16;5030798;28;20484;-60
2021/12/17 06:32:24;;;;;;;6.50;4.65;;;;;;;3.40;73.93;95827.44;5030732;28;20032;-61
2021/12/17 06:34:50;;;;;;;10.05;6.07;;;;;;;3.45;74.31;95838.38;5030615;28;20032;-58
2021/12/17 06:37:17;;;;;;;11.90;7.35;;;;;;;3.41;75.20;95839.34;5029881;28;20113;-60
2021/12/17 06:39:43;;;;;;;11.40;7.22;;;;;;;3.37;76.59;95844.53;5030134;28;20044;-61
2021/12/17 06:42:10;;;;;;;10.45;6.75;;;;;;;3.34;75.27;95835.22;5030487;28;20546;-60
2021/12/17 06:44:37;;;;;;;9.63;6.18;;;;;;;3.34;75.63;95835.22;5029978;28;20029;-57
2021/12/17 06:47:28;;;;;;;10.25;5.90;;;;;;;3.27;75.93;95829.41;5030009;28;20021;-59
2021/12/17 06:54:37;;;;;;;7.07;4.28;;;;;;;3.16;75.92;95836.44;5029290;28;20452;-61
2021/12/17 07:01:00;;;;;;;9.82;5.65;;;;;;;2.94;76.33;95808.03;5021567;28;20034;-54
2021/12/17 07:06:53;;;;;;;9.05;6.18;;;;;;;2.99;77.31;95847.00;5026746;28;20087;-52
2021/12/17 07:11:51;;;;;;;8.18;6.10;;;;;;;2.94;77.38;95823.34;5026618;28;20386;-53
2021/12/17 07:22:50;;;;;;;7.47;5.85;;;;;;;2.90;78.29;95849.72;5026870;28;20025;-55
2021/12/17 07:33:14;;;;;;;10.93;7.45;;;;;;;2.70;80.72;95817.00;5026821;28;20041;-55
2021/12/17 07:40:50;;;;;;;10.15;7.43;;;;;;;3.24;78.31;95792.97;5019019;28;20137;-58
2021/12/17 07:43:25;;;;;;;9.02;6.78;;;;;;;3.01;79.48;95811.31;5026400;28;20130;-52
2021/12/17 07:45:52;;;;;;;9.43;6.28;;;;;;;2.93;80.35;95826.72;5019906;28;20050;-50
2021/12/17 07:48:17;;;;;;;9.35;7.45;;;;;;;2.90;81.35;95819.16;5025823;28;20136;-51
2021/12/17 07:50:42;;;;;;;10.35;6.43;;;;;;;2.86;81.33;95823.47;5022155;28;20037;-51
2021/12/17 07:53:08;;;;;;;11.43;6.47;;;;;;;1.88;81.97;95688.72;5026045;28;20029;-56
2021/12/17 07:55:33;;;;;;;9.60;6.38;;;;;;;2.64;82.38;95810.34;5024805;28;20033;-52
2021/12/17 07:57:59;;;;;;;14.15;8.55;;;;;;;2.54;82.47;95786.75;5024514;28;20515;-61
2021/12/17 08:00:24;;;;;;;12.43;8.63;;;;;;;2.76;82.54;95829.63;5025404;28;20025;-59
2021/12/17 08:02:50;;;;;;;13.18;8.88;;;;;;;2.80;82.39;95821.03;5022948;28;20108;-59
2021/12/17 08:05:17;;;;;;;10.32;7.35;;;;;;;2.83;81.56;95840.53;5027058;28;20025;-57
2021/12/17 08:07:43;;;;;;;12.98;8.98;;;;;;;2.77;82.31;95836.38;5050675;28;20112;-56
2021/12/17 08:10:09;;;;;;;12.38;9.23;;;;;;;2.79;82.38;95833.81;5009321;28;20109;-55
2021/12/17 08:12:35;;;;;;;14.25;9.57;;;;;;;2.85;82.27;95836.25;5015420;28;20034;-54
2021/12/17 08:15:01;;;;;;;14.90;8.90;;;;;;;2.69;82.26;95811.06;5028942;28;20057;-63
2021/12/17 08:23:31;;;;;;;14.18;10.77;;;;;;;2.85;83.17;95826.88;5049037;28;20576;-59
2021/12/17 08:28:18;;;;;;;12.10;9.80;;;;;;;2.69;82.82;95792.38;5048199;28;20112;-57
2021/12/17 08:30:43;;;;;;;12.88;10.15;;;;;;;2.83;82.56;95802.31;5047265;28;20029;-57
2021/12/17 08:33:09;;;;;;;13.90;9.73;;;;;;;2.97;82.40;95823.28;5047155;28;20059;-59
2021/12/17 08:35:36;;;;;;;11.73;8.85;;;;;;;2.99;81.69;95829.16;5028582;28;20048;-54
2021/12/17 08:38:06;;;;;;;11.27;8.40;;;;;;;3.00;81.82;95823.22;5027940;28;20034;-59
2021/12/17 08:40:32;;;;;;;15.02;10.07;;;;;;;2.93;81.58;95798.72;5028625;28;20127;-66
2021/12/17 08:42:58;;;;;;;14.65;10.15;;;;;;;3.15;81.07;95823.75;5028617;28;20112;-57
2021/12/17 08:45:24;;;;;;;13.23;9.70;;;;;;;3.02;80.94;95803.63;5028492;28;20061;-60
2021/12/17 08:47:51;;;;;;;15.60;10.55;;;;;;;3.25;80.35;95799.75;5028128;28;20473;-53
2021/12/17 08:50:18;;;;;;;13.60;10.38;;;;;;;3.29;79.98;95802.19;5045719;28;20504;-54
2021/12/17 08:52:44;;;;;;;15.57;10.48;;;;;;;3.35;79.67;95803.78;5048511;28;20083;-56
2021/12/17 08:55:10;;;;;;;11.55;8.85;;;;;;;3.39;79.28;95800.28;5028835;28;20027;-62
2021/12/17 08:57:36;;;;;;;14.85;10.30;;;;;;;3.48;78.83;95797.53;5027853;28;20087;-58
2021/12/17 09:00:06;;;;;;;14.45;10.68;;;;;;;3.56;78.99;95794.81;5028353;28;20083;-62
2021/12/17 09:02:33;;;;;;;11.88;8.77;;;;;;;3.36;78.78;95774.00;5027859;28;20029;-56
2021/12/17 09:04:59;;;;;;;15.88;10.23;;;;;;;3.53;78.64;95777.03;5027847;28;20021;-60
2021/12/17 09:07:24;;;;;;;17.73;10.50;;;;;;;3.65;78.36;95786.09;5028065;28;20095;-55
2021/12/17 09:09:50;;;;;;;15.30;8.35;;;;;;;3.68;78.13;95784.31;5028240;28;20444;-61
2021/12/17 09:12:15;;;;;;;13.15;10.35;;;;;;;3.71;78.28;95775.75;5027884;28;20030;-59
2021/12/17 09:14:41;;;;;;;13.30;8.57;;;;;;;3.58;78.12;95764.16;5030183;28;20281;-57
2021/12/17 09:17:06;;;;;;;10.60;7.70;;;;;;;3.70;78.39;95778.34;5031694;28;20026;-59
2021/12/17 09:19:33;;;;;;;16.83;11.93;;;;;;;3.87;77.98;95768.56;5043765;28;20032;-58
2021/12/17 09:21:59;;;;;;;20.88;15.27;;;;;;;3.99;78.15;95767.41;5050524;28;20380;-56
2021/12/17 09:24:24;;;;;;;16.42;10.60;;;;;;;3.81;77.29;95720.25;5051294;28;20108;-56
2021/12/17 09:26:50;;;;;;;14.40;9.70;;;;;;;4.09;77.39;95762.94;5051440;28;20033;-58
2021/12/17 09:29:15;;;;;;;16.05;10.60;;;;;;;3.92;77.48;95727.59;5051512;28;20347;-61
2021/12/17 09:31:41;;;;;;;14.05;9.48;;;;;;;4.14;76.57;95754.25;5051472;28;20407;-62
2021/12/17 09:34:06;;;;;;;12.95;9.75;;;;;;;4.30;76.25;95762.38;5042026;28;20029;-58
2021/12/17 09:36:33;;;;;;;9.65;6.45;;;;;;;4.12;76.61;95761.13;5031132;28;20034;-58
2021/12/17 09:38:59;;;;;;;11.55;8.25;;;;;;;4.11;77.35;95764.53;5031477;28;20036;-58
2021/12/17 09:41:26;;;;;;;8.93;6.57;;;;;;;4.02;76.84;95746.94;5031365;28;20424;-56
2021/12/17 09:43:52;;;;;;;12.65;7.72;;;;;;;3.95;77.54;95723.28;5063764;28;20319;-56
2021/12/17 09:46:18;;;;;;;10.15;7.50;;;;;;;4.34;76.63;95717.16;5031709;28;20063;-56
2021/12/17 09:48:46;;;;;;;9.73;7.45;;;;;;;4.40;76.22;95717.00;5036429;28;20032;-59
2021/12/17 09:51:13;;;;;;;11.05;8.57;;;;;;;4.94;75.60;95707.78;5051745;28;20028;-57
2021/12/17 09:53:39;;;;;;;9.43;7.63;;;;;;;6.17;69.76;95705.59;5051679;28;20443;-56
2021/12/17 09:56:05;;;;;;;8.70;6.32;;;;;;;5.59;69.72;95657.16;5050925;28;20021;-55
2021/12/17 09:58:31;;;;;;;12.45;9.05;;;;;;;5.31;72.31;95701.53;5050928;28;20052;-59
2021/12/17 10:00:56;;;;;;;10.20;6.68;;;;;;;5.26;72.22;95708.53;5049990;28;20025;-62
2021/12/17 10:03:22;;;;;;;12.55;9.38;;;;;;;4.83;73.36;95659.53;5047744;28;20025;-57
2021/12/17 10:05:48;;;;;;;10.65;7.80;;;;;;;4.69;74.55;95705.97;5031265;28;20029;-59
2021/12/17 10:08:17;;;;;;;13.10;8.73;;;;;;;4.50;75.17;95705.63;5031170;28;20466;-63
2021/12/17 10:10:42;;;;;;;11.55;7.65;;;;;;;4.21;76.73;95698.78;5030999;28;20434;-57
2021/12/17 10:13:12;;;;;;;11.98;8.43;;;;;;;4.26;76.56;95694.38;5030726;28;20116;-61
2021/12/17 10:15:40;;;;;;;16.65;9.52;;;;;;;4.36;76.71;95692.41;5030739;28;20026;-60
2021/12/17 10:18:05;;;;;;;11.65;7.25;;;;;;;4.01;75.92;95617.66;5030667;28;20029;-56
2021/12/17 10:20:34;;;;;;;13.38;7.57;;;;;;;4.58;74.97;95675.59;5050730;28;20341;-60
2021/12/17 10:23:06;;;;;;;16.10;11.20;;;;;;;4.51;75.54;95663.03;5050808;28;20028;-55
2021/12/17 10:25:34;;;;;;;14.88;8.73;;;;;;;4.65;74.51;95653.25;5048919;28;20032;-56
2021/12/17 10:28:03;;;;;;;12.55;8.10;;;;;;;4.58;74.90;95659.44;5050065;28;20167;-56
2021/12/17 10:30:31;;;;;;;10.95;7.85;;;;;;;4.40;74.65;95653.97;5050369;28;20025;-59
2021/12/17 10:32:59;;;;;;;10.27;7.63;;;;;;;4.38;75.62;95634.50;5049158;28;20129;-57
2021/12/17 10:35:31;;;;;;;13.88;8.05;;;;;;;4.47;75.65;95648.69;5049476;28;20028;-60
2021/12/17 10:38:04;;;;;;;14.60;9.18;;;;;;;4.40;75.27;95628.44;5048646;28;20448;-58
2021/12/17 10:40:34;;;;;;;13.65;8.50;;;;;;;4.50;75.02;95628.19;5048950;28;20376;-57
2021/12/17 10:43:06;;;;;;;11.77;7.72;;;;;;;4.31;75.85;95626.16;5050300;28;20017;-56
2021/12/17 10:45:56;;;;;;;12.65;8.45;;;;;;;4.33;75.63;95609.09;5048171;28;20025;-57
2021/12/17 10:48:29;;;;;;;10.65;7.60;;;;;;;4.35;75.87;95616.69;5050091;28;20032;-64
2021/12/17 10:51:17;;;;;;;10.82;7.15;;;;;;;4.38;75.02;95602.13;5047898;28;20109;-58
2021/12/17 10:53:54;;;;;;;11.32;7.60;;;;;;;4.38;75.24;95606.41;5037569;28;20056;-57
2021/12/17 10:56:29;;;;;;;8.10;5.63;;;;;;;4.44;75.32;95621.53;5029445;28;20410;-61
2021/12/17 10:59:16;;;;;;;12.93;9.27;;;;;;;4.50;75.26;95623.91;5028160;28;20033;-55
2021/12/17 11:02:11;;;;;;;11.68;8.45;;;;;;;4.56;75.05;95621.16;5029316;28;20030;-58
2021/12/17 11:04:39;;;;;;;12.82;8.00;;;;;;;4.36;75.80;95626.00;5006763;28;20414;-58
2021/12/17 11:07:13;;;;;;;10.40;7.88;;;;;;;4.33;76.64;95610.78;5006872;28;20533;-58
2021/12/17 11:09:50;;;;;;;11.32;8.77;;;;;;;4.24;76.23;95582.09;5006726;28;20153;-59
2021/12/17 11:12:17;;;;;;;10.43;8.15;;;;;;;4.27;77.93;95610.97;5006672;28;20469;-54
2021/12/17 11:14:45;;;;;;;8.80;7.13;;;;;;;4.13;78.90;95608.81;5006738;28;20440;-57
2021/12/17 11:17:11;;;;;;;10.45;6.90;;;;;;;4.03;78.81;95601.44;5007288;28;20514;-56
2021/12/17 11:19:38;;;;;;;10.10;6.60;;;;;;;3.24;79.07;95482.84;5007365;28;20026;-57
2021/12/17 11:22:04;;;;;;;10.55;7.47;;;;;;;4.13;79.18;95596.03;5006924;28;20053;-58
2021/12/17 11:24:32;;;;;;;9.55;7.35;;;;;;;4.10;79.45;95578.25;5006479;28;20116;-62
2021/12/17 11:26:59;;;;;;;11.77;8.25;;;;;;;4.19;78.04;95583.94;5006829;28;20563;-57
2021/12/17 11:29:26;;;;;;;10.77;7.80;;;;;;;4.19;77.59;95558.41;5006580;28;20113;-61
2021/12/17 11:31:51;;;;;;;12.18;8.95;;;;;;;4.69;76.29;95536.47;5006797;28;20053;-61
2021/12/17 11:34:18;;;;;;;10.63;8.43;;;;;;;5.20;74.86;95560.41;5007118;28;20084;-56
2021/12/17 11:36:48;;;;;;;12.38;8.95;;;;;;;5.04;74.50;95573.69;5005682;28;20034;-57
2021/12/17 11:39:25;;;;;;;8.93;6.15;;;;;;;4.55;74.16;95536.94;5006699;28;20038;-57
2021/12/17 11:41:52;;;;;;;13.13;7.53;;;;;;;4.65;74.78;95560.47;5021822;28;20099;-59
2021/12/17 11:44:21;;;;;;;11.00;6.25;;;;;;;4.57;74.89;95545.38;5029093;28;20065;-58
2021/12/17 11:47:01;;;;;;;11.43;6.90;;;;;;;4.48;74.77;95543.94;5028751;28;20033;-59
2021/12/17 11:49:29;;;;;;;7.20;5.27;;;;;;;4.17;75.94;95531.28;5028883;28;20075;-60
2021/12/17 11:51:55;;;;;;;10.75;4.47;;;;;;;4.08;76.45;95522.16;5029595;28;20276;-56
2021/12/17 11:54:29;;;;;;;6.32;4.53;;;;;;;3.95;77.02;95531.91;5029523;28;20389;-54
2021/12/17 11:57:07;;;;;;;8.50;5.20;;;;;;;3.88;77.78;95549.97;5028559;28;20045;-60
2021/12/17 11:59:37;;;;;;;10.43;6.22;;;;;;;3.52;78.26;95486.34;5027631;28;20461;-58
2021/12/17 12:02:16;;;;;;;7.35;4.85;;;;;;;3.71;78.75;95547.91;5028723;28;20068;-59
2021/12/17 12:04:46;;;;;;;8.50;5.55;;;;;;;3.69;79.12;95542.84;5028470;28;20021;-54
2021/12/17 12:07:25;;;;;;;11.35;5.15;;;;;;;3.63;79.32;95550.66;5028349;28;20104;-58
2021/12/17 12:09:59;;;;;;;14.40;6.82;;;;;;;3.64;78.24;95542.97;5028588;28;20022;-57
2021/12/17 12:12:33;;;;;;;9.57;6.43;;;;;;;3.70;77.97;95549.59;5027941;28;20021;-57
2021/12/17 12:15:17;;;;;;;7.90;5.57;;;;;;;3.67;78.56;95547.13;5028796;28;20056;-54
2021/12/17 12:18:03;;;;;;;7.55;5.32;;;;;;;3.65;77.82;95536.97;5028227;28;20485;-55
2021/12/17 12:20:50;;;;;;;8.70;5.55;;;;;;;3.58;77.66;95535.47;5027089;28;20086;-55
2021/12/17 12:23:28;;;;;;;8.02;5.68;;;;;;;3.62;76.97;95529.44;5028398;28;20030;-59
2021/12/17 12:26:08;;;;;;;6.30;4.72;;;;;;;3.62;76.16;95520.91;5027798;28;20022;-52
2021/12/17 12:28:46;;;;;;;7.38;5.88;;;;;;;3.70;76.29;95521.53;5028080;28;20107;-58
2021/12/17 12:31:36;;;;;;;13.27;5.32;;;;;;;3.73;75.23;95497.69;5028420;28;20436;-57
2021/12/17 12:34:06;;;;;;;7.47;5.47;;;;;;;3.76;74.65;95506.06;5025115;28;20215;-54
2021/12/17 12:36:53;;;;;;;13.05;5.63;;;;;;;3.85;74.15;95495.59;5027732;28;20132;-53
2021/12/17 12:39:28;;;;;;;9.13;5.63;;;;;;;3.95;72.98;95492.78;5028206;28;20064;-54
2021/12/17 12:42:17;;;;;;;7.78;4.75;;;;;;;3.77;71.96;95477.13;5028309;28;20758;-58
2021/12/17 12:44:43;;;;;;;9.63;6.10;;;;;;;3.91;72.40;95488.66;5028008;28;20029;-56
2021/12/17 12:47:20;;;;;;;8.80;6.13;;;;;;;3.99;72.02;95484.16;5027829;28;20574;-56
2021/12/17 12:50:06;;;;;;;7.63;5.18;;;;;;;3.87;70.93;95493.03;5027608;28;20062;-62
2021/12/17 12:52:31;;;;;;;6.85;3.95;;;;;;;3.72;70.62;95486.63;5027709;28;20493;-58
2021/12/17 12:55:23;;;;;;;6.95;4.38;;;;;;;3.76;70.23;95488.22;5028094;28;20036;-61
2021/12/17 12:57:58;;;;;;;6.72;3.75;;;;;;;3.73;69.98;95478.09;5005577;28;20188;-57
2021/12/17 13:00:27;;;;;;;5.95;3.17;;;;;;;3.62;69.94;95482.66;5004973;28;20482;-56
2021/12/17 13:02:56;;;;;;;5.50;3.53;;;;;;;3.68;69.86;95474.84;4999875;28;20050;-58
2021/12/17 13:05:23;;;;;;;7.22;4.60;;;;;;;3.74;69.86;95474.66;5005456;28;20029;-57
2021/12/17 13:07:50;;;;;;;6.88;4.75;;;;;;;3.57;69.64;95456.47;5005644;28;20103;-58
2021/12/17 13:10:24;;;;;;;6.20;4.10;;;;;;;3.65;69.40;95505.53;5005506;28;20564;-58
2021/12/17 13:12:55;;;;;;;5.43;3.65;;;;;;;3.61;69.29;95486.13;5005237;28;20117;-53
2021/12/17 13:15:41;;;;;;;4.75;2.97;;;;;;;3.72;69.20;95473.84;5005426;28;20525;-53
2021/12/17 13:24:15;;;;;;;3.40;2.90;;;;;;;3.81;68.12;95471.06;5005566;28;20447;-57
2021/12/17 13:26:43;;;;;;;4.30;2.88;;;;;;;3.73;67.59;95484.91;5004922;28;20034;-55
2021/12/17 13:29:13;;;;;;;5.68;2.75;;;;;;;3.72;66.92;95467.94;5005233;28;20050;-55
2021/12/17 13:32:09;;;;;;;5.07;3.58;;;;;;;3.43;67.25;95442.38;5005370;28;20481;-54
2021/12/17 13:34:40;;;;;;;6.10;3.90;;;;;;;3.72;67.35;95491.72;4994284;28;20049;-55
2021/12/17 13:37:16;;;;;;;;;;;;;;;3.76;67.83;95495.03;5007807;28;20108;-57
2021/12/17 13:39:56;;;;;;;4.85;3.63;;;;;;;3.66;67.50;95495.28;5007584;28;19985;-55
2021/12/17 13:42:26;;;;;;;6.68;3.80;;;;;;;3.62;67.61;95497.97;5007975;28;20408;-53
2021/12/17 13:44:54;;;;;;;9.00;5.75;;;;;;;3.29;67.00;95447.84;5007689;28;20026;-53
2021/12/17 13:47:24;;;;;;;4.80;3.35;;;;;;;3.61;66.43;95499.69;5007658;28;20033;-55
2021/12/17 13:50:08;;;;;;;6.93;4.65;;;;;;;3.59;67.41;95503.16;5007580;28;20052;-58
2021/12/17 13:52:37;;;;;;;7.70;5.10;;;;;;;3.56;67.23;95498.97;5007501;28;20057;-55
2021/12/17 13:55:07;;;;;;;7.95;5.60;;;;;;;3.52;67.34;95506.75;5007723;28;20072;-55
2021/12/17 13:57:33;;;;;;;8.50;5.25;;;;;;;3.54;67.23;95477.75;5007261;28;20045;-57
2021/12/17 14:00:14;;;;;;;6.95;4.88;;;;;;;3.67;66.83;95491.88;5007764;28;20137;-55
2021/12/17 14:02:42;;;;;;;8.88;5.25;;;;;;;3.64;66.54;95486.00;5010789;28;20029;-52
2021/12/17 14:05:14;;;;;;;8.40;4.55;;;;;;;3.44;67.06;95482.31;5011456;28;20128;-57
2021/12/17 14:07:42;;;;;;;6.63;4.70;;;;;;;3.46;67.09;95472.91;5011621;28;20104;-57
2021/12/17 14:10:19;;;;;;;7.45;4.15;;;;;;;3.43;66.82;95475.53;5011844;28;20462;-62
2021/12/17 14:12:45;;;;;;;6.07;4.35;;;;;;;3.52;66.83;95491.47;5010577;28;20401;-58
2021/12/17 14:15:15;;;;;;;6.97;4.72;;;;;;;3.41;67.17;95479.84;5010804;28;20587;-55
2021/12/17 14:17:44;;;;;;;6.10;4.07;;;;;;;3.48;66.94;95488.16;5011136;28;20436;-53
2021/12/17 14:20:10;;;;;;;5.65;4.28;;;;;;;3.54;67.13;95500.72;5011124;28;20072;-59
2021/12/17 14:22:38;;;;;;;6.95;4.78;;;;;;;3.44;67.28;95517.16;5011164;28;20053;-54
2021/12/17 14:25:24;;;;;;;7.15;5.38;;;;;;;3.24;67.19;95469.25;5010635;28;20042;-55
2021/12/17 14:27:51;;;;;;;6.63;4.82;;;;;;;3.21;67.50;95505.03;5010678;28;20555;-55
2021/12/17 14:30:22;;;;;;;5.18;4.00;;;;;;;3.16;68.01;95510.25;5010668;28;20438;-57
2021/12/17 14:32:49;;;;;;;9.68;5.60;;;;;;;3.16;68.81;95515.34;5010987;28;20172;-57
2021/12/17 14:35:15;;;;;;;7.85;5.60;;;;;;;3.00;70.13;95504.72;5010825;28;20210;-57
2021/12/17 14:37:54;;;;;;;8.43;5.70;;;;;;;3.05;70.93;95512.22;5010200;28;20045;-57
2021/12/17 14:40:34;;;;;;;11.82;7.72;;;;;;;3.04;71.27;95519.03;5011301;28;20367;-58
2021/12/17 14:43:00;;;;;;;6.70;4.55;;;;;;;2.93;71.28;95523.56;5010958;28;20366;-57
2021/12/17 14:45:35;;;;;;;8.57;6.00;;;;;;;2.88;72.02;95518.56;5010378;28;20427;-58
2021/12/17 14:48:30;;;;;;;7.40;4.90;;;;;;;2.81;72.12;95511.97;5010719;28;20116;-54
2021/12/17 15:02:37;;;;;;;6.22;4.72;;;;;;;2.79;71.41;95526.47;5010326;28;20036;-58